Historique des mesures à Cassis (13260), France
Quotidien Résumé Juin 23, 2017 Unités:  US    Métrique   Métrique/US
« Précédent (Jour)
Suivant (Jour) »
Quotidien Hebdomadaire Mensuel Annuel Période au choix
  Maximum: Minimum: Moyenne:
Température: 32 °F 72.3 °F 79.3 °F
Point de rosée: 32 °F 65.7 °F 68.7 °F
Humidité: Humidity % 58 % 67 %
Vitesse du vent: WindSpeedKMH mph 0.0 mph 2.6 mph
Rafales: WindSpeedGustKMH mph - -
Vent:- - SW
Pression: 0 in 29.9 in -
Précipitations: 0 in    
Historical Graphs
 
 
Mesures pour : Juin 23, 2017
Heure Temperature Point de rosée Pression Vent Vitesse du vent Rafales Humidité Pluie (par heure) Conditions
32 °F 32 °F 0 in Calm     Humidity % 0 in SoftwareType W/m2
00:11 75.7 °F 67.6 °F 30 in Calm     76 % 0 in open2300-1.11 W/m2
01:10 75.4 °F 67.6 °F 30 in Calm     77 % 0 in open2300-1.11 W/m2
02:11 74.1 °F 66.9 °F 29.9 in Calm     78 % 0 in open2300-1.11 W/m2
03:10 73.8 °F 66.6 °F 29.9 in Calm     78 % 0 in open2300-1.11 W/m2
04:10 73.2 °F 65.7 °F 29.9 in Calm     77 % 0 in open2300-1.11 W/m2
05:10 73.2 °F 66.7 °F 29.9 in Calm   1.8 mph 80 % 0 in open2300-1.11 W/m2
06:10 72.3 °F 65.8 °F 29.9 in NNW 2.1 mph 2.1 mph 80 % 0 in open2300-1.11 W/m2
07:10 74.1 °F 68 °F 29.9 in Calm     81 % 0 in open2300-1.11 W/m2
08:10 77.4 °F 70 °F 29.9 in Calm     78 % 0 in open2300-1.11 W/m2
09:10 79.3 °F 71.1 °F 29.9 in Calm   1.4 mph 76 % 0 in open2300-1.11 W/m2
10:10 82.6 °F 73.4 °F 29.9 in WSW 2.6 mph 6.1 mph 74 % 0 in open2300-1.11 W/m2
11:10 86.2 °F 74.5 °F 29.9 in SSE 6.4 mph 6.4 mph 68 % 0 in open2300-1.11 W/m2
12:10 88.5 °F 73.9 °F 29.9 in SE 1.4 mph 7.6 mph 62 % 0 in open2300-1.11 W/m2
13:10 89.4 °F 74.7 °F 29.9 in SSE 6.1 mph 6.1 mph 62 % 0 in open2300-1.11 W/m2
14:10 90.3 °F 75 °F 29.9 in Calm   2.9 mph 61 % 0 in open2300-1.11 W/m2
15:10 90.5 °F 74.8 °F 29.9 in South 5.5 mph 5.8 mph 60 % 0 in open2300-1.11 W/m2
16:10 91 °F 74.7 °F 29.9 in SE 2.9 mph 8.7 mph 59 % 0 in open2300-1.11 W/m2
17:10 88.3 °F 73.2 °F 29.9 in WNW 4.3 mph 5.0 mph 61 % 0 in open2300-1.11 W/m2
18:10 88.5 °F 71.8 °F 29.9 in WSW 3.2 mph 9.0 mph 58 % 0 in open2300-1.11 W/m2
19:10 84.6 °F 69.6 °F 29.9 in NNE 2.1 mph 17.7 mph 61 % 0 in open2300-1.11 W/m2
20:11 83.7 °F 68.7 °F 29.9 in NW 11.6 mph 11.6 mph 61 % 0 in open2300-1.11 W/m2
21:10 81 °F 68.2 °F 29.9 in West 1.4 mph 6.1 mph 65 % 0 in open2300-1.11 W/m2
22:10 80.2 °F 67.8 °F 29.9 in Calm   1.4 mph 66 % 0 in open2300-1.11 W/m2
23:10 79.3 °F 67.5 °F 29.9 in NW 14.8 mph 14.8 mph 67 % 0 in open2300-1.11 W/m2
Observations météo à CASSIS
WU-History script by Weather Underground - 1 mb